sensor_id;sensor_type;location;lat;lon;timestamp;P1;durP1;ratioP1;P2;durP2;ratioP2
46551;SDS011;32278;51.810;4.712;2023-11-21T00:00:26;74.63;;;66.70;;
46551;SDS011;32278;51.810;4.712;2023-11-21T00:02:52;75.60;;;65.97;;
46551;SDS011;32278;51.810;4.712;2023-11-21T00:05:18;73.00;;;65.85;;
46551;SDS011;32278;51.810;4.712;2023-11-21T00:07:44;73.28;;;65.60;;
46551;SDS011;32278;51.810;4.712;2023-11-21T00:10:11;73.57;;;65.75;;
46551;SDS011;32278;51.810;4.712;2023-11-21T00:12:39;70.97;;;63.50;;
46551;SDS011;32278;51.810;4.712;2023-11-21T00:15:07;79.78;;;69.13;;
46551;SDS011;32278;51.810;4.712;2023-11-21T00:17:36;74.30;;;66.70;;
46551;SDS011;32278;51.810;4.712;2023-11-21T00:20:03;77.57;;;69.25;;
46551;SDS011;32278;51.810;4.712;2023-11-21T00:22:31;75.43;;;67.32;;
46551;SDS011;32278;51.810;4.712;2023-11-21T00:24:57;73.85;;;66.07;;
46551;SDS011;32278;51.810;4.712;2023-11-21T00:27:23;77.18;;;68.68;;
46551;SDS011;32278;51.810;4.712;2023-11-21T00:29:49;82.05;;;69.60;;
46551;SDS011;32278;51.810;4.712;2023-11-21T00:32:15;77.22;;;69.07;;
46551;SDS011;32278;51.810;4.712;2023-11-21T00:34:41;84.97;;;70.47;;
46551;SDS011;32278;51.810;4.712;2023-11-21T00:37:07;96.70;;;73.22;;
46551;SDS011;32278;51.810;4.712;2023-11-21T00:39:33;77.38;;;68.50;;
46551;SDS011;32278;51.810;4.712;2023-11-21T00:42:00;79.10;;;67.85;;
46551;SDS011;32278;51.810;4.712;2023-11-21T00:44:29;71.75;;;64.28;;
46551;SDS011;32278;51.810;4.712;2023-11-21T00:46:55;67.80;;;60.53;;
46551;SDS011;32278;51.810;4.712;2023-11-21T00:49:21;75.88;;;61.08;;
46551;SDS011;32278;51.810;4.712;2023-11-21T00:51:47;73.60;;;60.38;;
46551;SDS011;32278;51.810;4.712;2023-11-21T00:54:13;71.18;;;60.70;;
46551;SDS011;32278;51.810;4.712;2023-11-21T00:56:39;72.03;;;56.67;;
46551;SDS011;32278;51.810;4.712;2023-11-21T00:59:05;72.43;;;60.03;;
46551;SDS011;32278;51.810;4.712;2023-11-21T01:01:32;67.47;;;56.88;;
46551;SDS011;32278;51.810;4.712;2023-11-21T01:03:57;62.47;;;55.92;;
46551;SDS011;32278;51.810;4.712;2023-11-21T01:06:23;60.17;;;53.58;;
46551;SDS011;32278;51.810;4.712;2023-11-21T01:08:50;64.78;;;53.15;;
46551;SDS011;32278;51.810;4.712;2023-11-21T01:11:16;62.25;;;51.88;;
46551;SDS011;32278;51.810;4.712;2023-11-21T01:13:42;64.53;;;54.17;;
46551;SDS011;32278;51.810;4.712;2023-11-21T01:16:09;61.67;;;55.00;;
46551;SDS011;32278;51.810;4.712;2023-11-21T01:18:36;72.30;;;58.55;;
46551;SDS011;32278;51.810;4.712;2023-11-21T01:21:02;72.03;;;58.00;;
46551;SDS011;32278;51.810;4.712;2023-11-21T01:23:28;71.35;;;56.25;;
46551;SDS011;32278;51.810;4.712;2023-11-21T01:25:55;62.75;;;55.97;;
46551;SDS011;32278;51.810;4.712;2023-11-21T01:28:24;60.38;;;54.45;;
46551;SDS011;32278;51.810;4.712;2023-11-21T01:30:51;62.90;;;56.75;;
46551;SDS011;32278;51.810;4.712;2023-11-21T01:33:21;65.85;;;57.63;;
46551;SDS011;32278;51.810;4.712;2023-11-21T01:35:47;61.10;;;54.65;;
46551;SDS011;32278;51.810;4.712;2023-11-21T01:38:13;60.38;;;53.92;;
46551;SDS011;32278;51.810;4.712;2023-11-21T01:40:40;56.78;;;51.03;;
46551;SDS011;32278;51.810;4.712;2023-11-21T01:43:06;61.03;;;53.65;;
46551;SDS011;32278;51.810;4.712;2023-11-21T01:45:33;68.18;;;56.60;;
46551;SDS011;32278;51.810;4.712;2023-11-21T01:47:59;64.90;;;56.03;;
46551;SDS011;32278;51.810;4.712;2023-11-21T01:50:26;70.30;;;53.47;;
46551;SDS011;32278;51.810;4.712;2023-11-21T01:52:52;60.67;;;54.13;;
46551;SDS011;32278;51.810;4.712;2023-11-21T01:55:19;59.13;;;47.95;;
46551;SDS011;32278;51.810;4.712;2023-11-21T01:57:45;56.00;;;49.22;;
46551;SDS011;32278;51.810;4.712;2023-11-21T02:00:12;56.17;;;48.70;;
46551;SDS011;32278;51.810;4.712;2023-11-21T02:02:44;49.67;;;44.28;;
46551;SDS011;32278;51.810;4.712;2023-11-21T02:05:11;50.67;;;45.08;;
46551;SDS011;32278;51.810;4.712;2023-11-21T02:07:40;51.35;;;46.05;;
46551;SDS011;32278;51.810;4.712;2023-11-21T02:10:07;53.78;;;43.10;;
46551;SDS011;32278;51.810;4.712;2023-11-21T02:12:34;46.83;;;41.80;;
46551;SDS011;32278;51.810;4.712;2023-11-21T02:15:03;55.97;;;45.67;;
46551;SDS011;32278;51.810;4.712;2023-11-21T02:17:39;49.72;;;44.35;;
46551;SDS011;32278;51.810;4.712;2023-11-21T02:20:05;50.28;;;44.53;;
46551;SDS011;32278;51.810;4.712;2023-11-21T02:22:32;56.47;;;46.35;;
46551;SDS011;32278;51.810;4.712;2023-11-21T02:25:00;53.50;;;42.25;;
46551;SDS011;32278;51.810;4.712;2023-11-21T02:27:27;47.03;;;42.15;;
46551;SDS011;32278;51.810;4.712;2023-11-21T02:29:53;48.92;;;43.53;;
46551;SDS011;32278;51.810;4.712;2023-11-21T02:32:19;47.17;;;40.35;;
46551;SDS011;32278;51.810;4.712;2023-11-21T02:34:47;45.80;;;38.78;;
46551;SDS011;32278;51.810;4.712;2023-11-21T02:37:14;50.92;;;42.03;;
46551;SDS011;32278;51.810;4.712;2023-11-21T02:39:40;51.53;;;45.47;;
46551;SDS011;32278;51.810;4.712;2023-11-21T02:42:06;57.42;;;51.17;;
46551;SDS011;32278;51.810;4.712;2023-11-21T02:44:32;59.30;;;50.50;;
46551;SDS011;32278;51.810;4.712;2023-11-21T02:46:59;55.03;;;49.53;;
46551;SDS011;32278;51.810;4.712;2023-11-21T02:49:25;55.28;;;49.67;;
46551;SDS011;32278;51.810;4.712;2023-11-21T02:51:54;56.53;;;50.95;;
46551;SDS011;32278;51.810;4.712;2023-11-21T02:54:20;62.80;;;52.85;;
46551;SDS011;32278;51.810;4.712;2023-11-21T02:56:49;62.72;;;56.28;;
46551;SDS011;32278;51.810;4.712;2023-11-21T02:59:15;69.00;;;61.35;;
46551;SDS011;32278;51.810;4.712;2023-11-21T03:01:41;63.65;;;57.08;;
46551;SDS011;32278;51.810;4.712;2023-11-21T03:04:07;66.90;;;60.20;;
46551;SDS011;32278;51.810;4.712;2023-11-21T03:06:33;71.60;;;64.47;;
46551;SDS011;32278;51.810;4.712;2023-11-21T03:08:59;70.32;;;63.22;;
46551;SDS011;32278;51.810;4.712;2023-11-21T03:11:25;67.43;;;60.95;;
46551;SDS011;32278;51.810;4.712;2023-11-21T03:13:54;68.32;;;61.95;;
46551;SDS011;32278;51.810;4.712;2023-11-21T03:16:20;67.45;;;60.72;;
46551;SDS011;32278;51.810;4.712;2023-11-21T03:18:46;66.53;;;59.88;;
46551;SDS011;32278;51.810;4.712;2023-11-21T03:21:12;63.00;;;56.97;;
46551;SDS011;32278;51.810;4.712;2023-11-21T03:23:38;62.50;;;55.80;;
46551;SDS011;32278;51.810;4.712;2023-11-21T03:26:04;60.42;;;53.75;;
46551;SDS011;32278;51.810;4.712;2023-11-21T03:28:33;61.72;;;53.17;;
46551;SDS011;32278;51.810;4.712;2023-11-21T03:30:59;57.72;;;52.03;;
46551;SDS011;32278;51.810;4.712;2023-11-21T03:33:25;55.75;;;50.15;;
46551;SDS011;32278;51.810;4.712;2023-11-21T03:35:54;54.92;;;49.50;;
46551;SDS011;32278;51.810;4.712;2023-11-21T03:38:20;54.15;;;48.42;;
46551;SDS011;32278;51.810;4.712;2023-11-21T03:40:46;53.42;;;47.72;;
46551;SDS011;32278;51.810;4.712;2023-11-21T03:43:13;48.08;;;43.53;;
46551;SDS011;32278;51.810;4.712;2023-11-21T03:45:39;46.47;;;41.55;;
46551;SDS011;32278;51.810;4.712;2023-11-21T03:48:06;49.60;;;44.15;;
46551;SDS011;32278;51.810;4.712;2023-11-21T03:50:32;51.95;;;46.08;;
46551;SDS011;32278;51.810;4.712;2023-11-21T03:52:58;54.83;;;49.70;;
46551;SDS011;32278;51.810;4.712;2023-11-21T03:55:24;57.38;;;51.72;;
46551;SDS011;32278;51.810;4.712;2023-11-21T03:57:50;56.53;;;51.45;;
46551;SDS011;32278;51.810;4.712;2023-11-21T04:00:16;61.65;;;56.15;;
46551;SDS011;32278;51.810;4.712;2023-11-21T04:02:42;61.25;;;55.90;;
46551;SDS011;32278;51.810;4.712;2023-11-21T04:05:08;69.28;;;62.08;;
46551;SDS011;32278;51.810;4.712;2023-11-21T04:07:35;69.22;;;63.22;;
46551;SDS011;32278;51.810;4.712;2023-11-21T04:10:03;71.88;;;65.50;;
46551;SDS011;32278;51.810;4.712;2023-11-21T04:12:32;72.65;;;65.70;;
46551;SDS011;32278;51.810;4.712;2023-11-21T04:14:58;69.85;;;63.83;;
46551;SDS011;32278;51.810;4.712;2023-11-21T04:17:24;72.70;;;66.40;;
46551;SDS011;32278;51.810;4.712;2023-11-21T04:19:50;76.82;;;70.53;;
46551;SDS011;32278;51.810;4.712;2023-11-21T04:22:16;74.97;;;69.13;;
46551;SDS011;32278;51.810;4.712;2023-11-21T04:24:42;74.53;;;67.75;;
46551;SDS011;32278;51.810;4.712;2023-11-21T04:27:08;77.03;;;70.15;;
46551;SDS011;32278;51.810;4.712;2023-11-21T04:29:34;74.88;;;68.68;;
46551;SDS011;32278;51.810;4.712;2023-11-21T04:32:00;79.18;;;72.45;;
46551;SDS011;32278;51.810;4.712;2023-11-21T04:34:27;79.45;;;73.10;;
46551;SDS011;32278;51.810;4.712;2023-11-21T04:36:56;79.07;;;72.20;;
46551;SDS011;32278;51.810;4.712;2023-11-21T04:39:22;80.43;;;73.93;;
46551;SDS011;32278;51.810;4.712;2023-11-21T04:41:48;81.20;;;74.70;;
46551;SDS011;32278;51.810;4.712;2023-11-21T04:44:14;84.82;;;77.72;;
46551;SDS011;32278;51.810;4.712;2023-11-21T04:46:41;82.82;;;75.95;;
46551;SDS011;32278;51.810;4.712;2023-11-21T04:49:07;85.22;;;78.03;;
46551;SDS011;32278;51.810;4.712;2023-11-21T04:51:33;95.30;;;87.07;;
46551;SDS011;32278;51.810;4.712;2023-11-21T04:53:59;94.30;;;86.50;;
46551;SDS011;32278;51.810;4.712;2023-11-21T04:56:25;94.25;;;86.80;;
46551;SDS011;32278;51.810;4.712;2023-11-21T04:58:54;96.38;;;88.43;;
46551;SDS011;32278;51.810;4.712;2023-11-21T05:01:20;98.22;;;90.40;;
46551;SDS011;32278;51.810;4.712;2023-11-21T05:03:46;98.25;;;89.88;;
46551;SDS011;32278;51.810;4.712;2023-11-21T05:06:13;105.32;;;96.45;;
46551;SDS011;32278;51.810;4.712;2023-11-21T05:08:40;105.75;;;97.35;;
46551;SDS011;32278;51.810;4.712;2023-11-21T05:11:06;108.97;;;100.32;;
46551;SDS011;32278;51.810;4.712;2023-11-21T05:13:33;108.82;;;100.40;;
46551;SDS011;32278;51.810;4.712;2023-11-21T05:15:59;112.70;;;102.75;;
46551;SDS011;32278;51.810;4.712;2023-11-21T05:18:29;114.35;;;104.88;;
46551;SDS011;32278;51.810;4.712;2023-11-21T05:20:55;112.45;;;103.38;;
46551;SDS011;32278;51.810;4.712;2023-11-21T05:23:21;114.60;;;105.50;;
46551;SDS011;32278;51.810;4.712;2023-11-21T05:25:47;107.13;;;98.07;;
46551;SDS011;32278;51.810;4.712;2023-11-21T05:28:13;105.15;;;96.22;;
46551;SDS011;32278;51.810;4.712;2023-11-21T05:30:39;101.68;;;93.75;;
46551;SDS011;32278;51.810;4.712;2023-11-21T05:33:05;103.05;;;94.85;;
46551;SDS011;32278;51.810;4.712;2023-11-21T05:35:31;104.03;;;95.40;;
46551;SDS011;32278;51.810;4.712;2023-11-21T05:37:57;102.03;;;93.75;;
46551;SDS011;32278;51.810;4.712;2023-11-21T05:40:23;105.15;;;96.55;;
46551;SDS011;32278;51.810;4.712;2023-11-21T05:42:51;111.68;;;102.57;;
46551;SDS011;32278;51.810;4.712;2023-11-21T05:45:17;108.93;;;100.32;;
46551;SDS011;32278;51.810;4.712;2023-11-21T05:47:45;113.05;;;104.10;;
46551;SDS011;32278;51.810;4.712;2023-11-21T05:50:11;107.32;;;98.55;;
46551;SDS011;32278;51.810;4.712;2023-11-21T05:52:41;111.55;;;102.03;;
46551;SDS011;32278;51.810;4.712;2023-11-21T05:55:07;110.25;;;100.78;;
46551;SDS011;32278;51.810;4.712;2023-11-21T05:57:37;114.65;;;106.00;;
46551;SDS011;32278;51.810;4.712;2023-11-21T06:00:06;109.80;;;101.22;;
46551;SDS011;32278;51.810;4.712;2023-11-21T06:02:38;102.38;;;94.22;;
46551;SDS011;32278;51.810;4.712;2023-11-21T06:05:04;94.63;;;85.47;;
46551;SDS011;32278;51.810;4.712;2023-11-21T06:07:30;114.10;;;104.78;;
46551;SDS011;32278;51.810;4.712;2023-11-21T06:09:56;144.63;;;133.15;;
46551;SDS011;32278;51.810;4.712;2023-11-21T06:12:22;133.02;;;121.70;;
46551;SDS011;32278;51.810;4.712;2023-11-21T06:14:49;134.23;;;123.30;;
46551;SDS011;32278;51.810;4.712;2023-11-21T06:17:14;137.32;;;125.72;;
46551;SDS011;32278;51.810;4.712;2023-11-21T06:19:41;132.45;;;120.75;;
46551;SDS011;32278;51.810;4.712;2023-11-21T06:22:07;125.35;;;114.97;;
46551;SDS011;32278;51.810;4.712;2023-11-21T06:24:33;124.65;;;114.03;;
46551;SDS011;32278;51.810;4.712;2023-11-21T06:26:59;121.10;;;110.63;;
46551;SDS011;32278;51.810;4.712;2023-11-21T06:29:25;123.38;;;112.28;;
46551;SDS011;32278;51.810;4.712;2023-11-21T06:31:51;128.18;;;116.00;;
46551;SDS011;32278;51.810;4.712;2023-11-21T06:34:20;134.15;;;122.10;;
46551;SDS011;32278;51.810;4.712;2023-11-21T06:36:46;128.07;;;117.30;;
46551;SDS011;32278;51.810;4.712;2023-11-21T06:39:12;125.28;;;115.43;;
46551;SDS011;32278;51.810;4.712;2023-11-21T06:41:40;130.48;;;118.55;;
46551;SDS011;32278;51.810;4.712;2023-11-21T06:44:06;125.10;;;113.80;;
46551;SDS011;32278;51.810;4.712;2023-11-21T06:46:33;129.50;;;118.10;;
46551;SDS011;32278;51.810;4.712;2023-11-21T06:48:59;126.60;;;115.38;;
46551;SDS011;32278;51.810;4.712;2023-11-21T06:51:25;122.97;;;112.80;;
46551;SDS011;32278;51.810;4.712;2023-11-21T06:53:51;125.78;;;115.22;;
46551;SDS011;32278;51.810;4.712;2023-11-21T06:56:18;125.40;;;114.47;;
46551;SDS011;32278;51.810;4.712;2023-11-21T06:58:44;122.07;;;111.68;;
46551;SDS011;32278;51.810;4.712;2023-11-21T07:01:11;125.93;;;115.22;;
46551;SDS011;32278;51.810;4.712;2023-11-21T07:03:38;126.93;;;115.70;;
46551;SDS011;32278;51.810;4.712;2023-11-21T07:06:04;123.85;;;112.95;;
46551;SDS011;32278;51.810;4.712;2023-11-21T07:08:30;121.88;;;111.72;;
46551;SDS011;32278;51.810;4.712;2023-11-21T07:10:56;127.85;;;116.20;;
46551;SDS011;32278;51.810;4.712;2023-11-21T07:13:22;127.82;;;117.70;;
46551;SDS011;32278;51.810;4.712;2023-11-21T07:15:48;122.22;;;111.55;;
46551;SDS011;32278;51.810;4.712;2023-11-21T07:18:14;121.70;;;110.95;;
46551;SDS011;32278;51.810;4.712;2023-11-21T07:20:40;117.22;;;106.25;;
46551;SDS011;32278;51.810;4.712;2023-11-21T07:23:06;118.47;;;108.07;;
46551;SDS011;32278;51.810;4.712;2023-11-21T07:25:32;124.22;;;112.20;;
46551;SDS011;32278;51.810;4.712;2023-11-21T07:27:59;114.28;;;103.72;;
46551;SDS011;32278;51.810;4.712;2023-11-21T07:30:25;111.78;;;101.22;;
46551;SDS011;32278;51.810;4.712;2023-11-21T07:32:52;108.47;;;98.88;;
46551;SDS011;32278;51.810;4.712;2023-11-21T07:35:18;108.43;;;98.32;;
46551;SDS011;32278;51.810;4.712;2023-11-21T07:37:44;104.97;;;94.22;;
46551;SDS011;32278;51.810;4.712;2023-11-21T07:40:10;103.25;;;92.25;;
46551;SDS011;32278;51.810;4.712;2023-11-21T07:42:36;100.70;;;90.68;;
46551;SDS011;32278;51.810;4.712;2023-11-21T07:45:03;105.55;;;94.82;;
46551;SDS011;32278;51.810;4.712;2023-11-21T07:47:29;100.13;;;90.50;;
46551;SDS011;32278;51.810;4.712;2023-11-21T07:49:55;105.25;;;94.30;;
46551;SDS011;32278;51.810;4.712;2023-11-21T07:52:21;102.57;;;92.30;;
46551;SDS011;32278;51.810;4.712;2023-11-21T07:54:48;103.25;;;93.35;;
46551;SDS011;32278;51.810;4.712;2023-11-21T07:57:14;95.30;;;84.97;;
46551;SDS011;32278;51.810;4.712;2023-11-21T07:59:40;94.30;;;85.40;;
46551;SDS011;32278;51.810;4.712;2023-11-21T08:02:06;91.78;;;82.95;;
46551;SDS011;32278;51.810;4.712;2023-11-21T08:04:32;93.68;;;84.88;;
46551;SDS011;32278;51.810;4.712;2023-11-21T08:07:00;96.53;;;88.10;;
46551;SDS011;32278;51.810;4.712;2023-11-21T08:09:26;107.40;;;97.82;;
46551;SDS011;32278;51.810;4.712;2023-11-21T08:11:52;96.40;;;87.78;;
46551;SDS011;32278;51.810;4.712;2023-11-21T08:14:18;94.28;;;85.45;;
46551;SDS011;32278;51.810;4.712;2023-11-21T08:16:45;88.25;;;80.13;;
46551;SDS011;32278;51.810;4.712;2023-11-21T08:19:11;88.93;;;80.75;;
46551;SDS011;32278;51.810;4.712;2023-11-21T08:21:37;87.55;;;80.00;;
46551;SDS011;32278;51.810;4.712;2023-11-21T08:24:04;83.47;;;75.72;;
46551;SDS011;32278;51.810;4.712;2023-11-21T08:26:30;78.45;;;71.22;;
46551;SDS011;32278;51.810;4.712;2023-11-21T08:28:56;78.93;;;71.28;;
46551;SDS011;32278;51.810;4.712;2023-11-21T08:31:25;81.60;;;72.88;;
46551;SDS011;32278;51.810;4.712;2023-11-21T08:33:51;80.53;;;72.30;;
46551;SDS011;32278;51.810;4.712;2023-11-21T08:36:20;77.50;;;70.13;;
46551;SDS011;32278;51.810;4.712;2023-11-21T08:38:49;78.90;;;70.85;;
46551;SDS011;32278;51.810;4.712;2023-11-21T08:41:15;73.93;;;66.13;;
46551;SDS011;32278;51.810;4.712;2023-11-21T08:43:41;79.25;;;71.00;;
46551;SDS011;32278;51.810;4.712;2023-11-21T08:46:07;77.50;;;70.28;;
46551;SDS011;32278;51.810;4.712;2023-11-21T08:48:36;66.57;;;59.85;;
46551;SDS011;32278;51.810;4.712;2023-11-21T08:51:03;65.35;;;58.90;;
46551;SDS011;32278;51.810;4.712;2023-11-21T08:53:29;62.47;;;56.10;;
46551;SDS011;32278;51.810;4.712;2023-11-21T08:55:56;64.55;;;57.92;;
46551;SDS011;32278;51.810;4.712;2023-11-21T08:58:22;61.28;;;55.03;;
46551;SDS011;32278;51.810;4.712;2023-11-21T09:00:48;64.68;;;57.80;;
46551;SDS011;32278;51.810;4.712;2023-11-21T09:03:14;66.65;;;59.53;;
46551;SDS011;32278;51.810;4.712;2023-11-21T09:05:40;67.97;;;60.65;;
46551;SDS011;32278;51.810;4.712;2023-11-21T09:08:06;68.50;;;61.63;;
46551;SDS011;32278;51.810;4.712;2023-11-21T09:10:33;71.00;;;57.08;;
46551;SDS011;32278;51.810;4.712;2023-11-21T09:13:01;66.18;;;57.33;;
46551;SDS011;32278;51.810;4.712;2023-11-21T09:15:27;65.80;;;57.25;;
46551;SDS011;32278;51.810;4.712;2023-11-21T09:17:53;62.58;;;54.72;;
46551;SDS011;32278;51.810;4.712;2023-11-21T09:20:19;69.18;;;54.60;;
46551;SDS011;32278;51.810;4.712;2023-11-21T09:22:48;66.32;;;55.30;;
46551;SDS011;32278;51.810;4.712;2023-11-21T09:25:14;63.22;;;55.60;;
46551;SDS011;32278;51.810;4.712;2023-11-21T09:27:40;63.55;;;53.63;;
46551;SDS011;32278;51.810;4.712;2023-11-21T09:30:06;61.83;;;52.28;;
46551;SDS011;32278;51.810;4.712;2023-11-21T09:32:36;58.60;;;49.80;;
46551;SDS011;32278;51.810;4.712;2023-11-21T09:35:04;60.40;;;53.88;;
46551;SDS011;32278;51.810;4.712;2023-11-21T09:37:30;57.58;;;50.58;;
46551;SDS011;32278;51.810;4.712;2023-11-21T09:39:56;62.42;;;50.40;;
46551;SDS011;32278;51.810;4.712;2023-11-21T09:42:27;61.38;;;54.55;;
46551;SDS011;32278;51.810;4.712;2023-11-21T09:47:40;60.20;;;50.50;;
46551;SDS011;32278;51.810;4.712;2023-11-21T09:50:07;61.58;;;51.30;;
46551;SDS011;32278;51.810;4.712;2023-11-21T09:53:18;54.63;;;48.72;;
46551;SDS011;32278;51.810;4.712;2023-11-21T09:55:26;59.15;;;49.85;;
46551;SDS011;32278;51.810;4.712;2023-11-21T09:57:55;57.60;;;50.75;;
46551;SDS011;32278;51.810;4.712;2023-11-21T10:00:22;56.22;;;46.85;;
46551;SDS011;32278;51.810;4.712;2023-11-21T10:02:49;57.75;;;48.28;;
46551;SDS011;32278;51.810;4.712;2023-11-21T10:05:15;53.33;;;47.53;;
46551;SDS011;32278;51.810;4.712;2023-11-21T10:07:43;54.33;;;46.55;;
46551;SDS011;32278;51.810;4.712;2023-11-21T10:10:10;53.75;;;45.22;;
46551;SDS011;32278;51.810;4.712;2023-11-21T10:12:36;50.72;;;44.65;;
46551;SDS011;32278;51.810;4.712;2023-11-21T10:15:03;54.25;;;44.10;;
46551;SDS011;32278;51.810;4.712;2023-11-21T10:17:34;45.17;;;40.35;;
46551;SDS011;32278;51.810;4.712;2023-11-21T10:20:08;46.95;;;42.22;;
46551;SDS011;32278;51.810;4.712;2023-11-21T10:22:37;44.47;;;40.17;;
46551;SDS011;32278;51.810;4.712;2023-11-21T10:25:03;45.33;;;40.95;;
46551;SDS011;32278;51.810;4.712;2023-11-21T10:27:32;44.65;;;40.25;;
46551;SDS011;32278;51.810;4.712;2023-11-21T10:30:00;46.47;;;42.13;;
46551;SDS011;32278;51.810;4.712;2023-11-21T10:32:29;44.60;;;40.30;;
46551;SDS011;32278;51.810;4.712;2023-11-21T10:34:58;43.20;;;39.00;;
46551;SDS011;32278;51.810;4.712;2023-11-21T10:37:31;45.28;;;40.58;;
46551;SDS011;32278;51.810;4.712;2023-11-21T10:40:00;44.65;;;40.30;;
46551;SDS011;32278;51.810;4.712;2023-11-21T10:42:27;45.55;;;40.67;;
46551;SDS011;32278;51.810;4.712;2023-11-21T10:44:53;44.80;;;39.90;;
46551;SDS011;32278;51.810;4.712;2023-11-21T10:47:19;47.10;;;41.92;;
46551;SDS011;32278;51.810;4.712;2023-11-21T10:49:51;48.83;;;41.15;;
46551;SDS011;32278;51.810;4.712;2023-11-21T10:52:18;46.05;;;41.00;;
46551;SDS011;32278;51.810;4.712;2023-11-21T10:54:45;48.65;;;43.55;;
46551;SDS011;32278;51.810;4.712;2023-11-21T10:57:11;45.60;;;40.95;;
46551;SDS011;32278;51.810;4.712;2023-11-21T10:59:40;47.05;;;42.35;;
46551;SDS011;32278;51.810;4.712;2023-11-21T11:02:17;45.33;;;40.85;;
46551;SDS011;32278;51.810;4.712;2023-11-21T11:04:46;44.47;;;40.58;;
46551;SDS011;32278;51.810;4.712;2023-11-21T11:07:12;44.03;;;39.83;;
46551;SDS011;32278;51.810;4.712;2023-11-21T11:09:38;44.38;;;40.13;;
46551;SDS011;32278;51.810;4.712;2023-11-21T11:12:04;43.95;;;39.72;;
46551;SDS011;32278;51.810;4.712;2023-11-21T11:14:32;42.47;;;38.45;;
46551;SDS011;32278;51.810;4.712;2023-11-21T11:16:58;43.47;;;39.63;;
46551;SDS011;32278;51.810;4.712;2023-11-21T11:19:25;42.42;;;38.63;;
46551;SDS011;32278;51.810;4.712;2023-11-21T11:24:33;45.10;;;41.00;;
46551;SDS011;32278;51.810;4.712;2023-11-21T11:29:54;45.28;;;40.67;;
46551;SDS011;32278;51.810;4.712;2023-11-21T11:34:54;44.50;;;40.10;;
46551;SDS011;32278;51.810;4.712;2023-11-21T11:37:22;43.47;;;39.08;;
46551;SDS011;32278;51.810;4.712;2023-11-21T11:39:48;44.03;;;39.65;;
46551;SDS011;32278;51.810;4.712;2023-11-21T11:42:16;44.53;;;39.28;;
46551;SDS011;32278;51.810;4.712;2023-11-21T11:47:14;44.13;;;39.67;;
46551;SDS011;32278;51.810;4.712;2023-11-21T11:52:31;44.78;;;40.15;;
46551;SDS011;32278;51.810;4.712;2023-11-21T11:54:59;46.28;;;41.60;;
46551;SDS011;32278;51.810;4.712;2023-11-21T11:57:25;47.00;;;41.90;;
46551;SDS011;32278;51.810;4.712;2023-11-21T12:00:06;45.95;;;41.38;;
46551;SDS011;32278;51.810;4.712;2023-11-21T12:02:37;45.40;;;40.78;;
46551;SDS011;32278;51.810;4.712;2023-11-21T12:05:12;47.58;;;42.38;;
46551;SDS011;32278;51.810;4.712;2023-11-21T12:07:46;46.30;;;41.65;;
46551;SDS011;32278;51.810;4.712;2023-11-21T12:10:13;45.88;;;41.25;;
46551;SDS011;32278;51.810;4.712;2023-11-21T12:12:43;44.35;;;39.97;;
46551;SDS011;32278;51.810;4.712;2023-11-21T12:15:10;48.50;;;42.13;;
46551;SDS011;32278;51.810;4.712;2023-11-21T12:17:37;45.60;;;41.17;;
46551;SDS011;32278;51.810;4.712;2023-11-21T12:20:04;44.50;;;40.17;;
46551;SDS011;32278;51.810;4.712;2023-11-21T12:22:31;47.53;;;42.47;;
46551;SDS011;32278;51.810;4.712;2023-11-21T12:24:57;48.70;;;42.88;;
46551;SDS011;32278;51.810;4.712;2023-11-21T12:27:23;49.03;;;43.50;;
46551;SDS011;32278;51.810;4.712;2023-11-21T12:29:49;54.22;;;44.10;;
46551;SDS011;32278;51.810;4.712;2023-11-21T12:32:15;47.63;;;42.47;;
46551;SDS011;32278;51.810;4.712;2023-11-21T12:34:43;48.75;;;43.53;;
46551;SDS011;32278;51.810;4.712;2023-11-21T12:37:09;51.33;;;43.15;;
46551;SDS011;32278;51.810;4.712;2023-11-21T12:39:35;52.30;;;43.88;;
46551;SDS011;32278;51.810;4.712;2023-11-21T12:42:01;51.35;;;44.13;;
46551;SDS011;32278;51.810;4.712;2023-11-21T12:44:27;50.33;;;43.28;;
46551;SDS011;32278;51.810;4.712;2023-11-21T12:46:54;48.35;;;41.67;;
46551;SDS011;32278;51.810;4.712;2023-11-21T12:49:20;48.05;;;42.63;;
46551;SDS011;32278;51.810;4.712;2023-11-21T12:51:47;55.10;;;43.67;;
46551;SDS011;32278;51.810;4.712;2023-11-21T12:54:13;54.75;;;43.45;;
46551;SDS011;32278;51.810;4.712;2023-11-21T12:56:39;51.92;;;43.15;;
46551;SDS011;32278;51.810;4.712;2023-11-21T12:59:05;56.97;;;43.97;;
46551;SDS011;32278;51.810;4.712;2023-11-21T13:01:31;53.55;;;45.75;;
46551;SDS011;32278;51.810;4.712;2023-11-21T13:03:57;53.25;;;44.47;;
46551;SDS011;32278;51.810;4.712;2023-11-21T13:06:23;53.75;;;42.75;;
46551;SDS011;32278;51.810;4.712;2023-11-21T13:08:51;49.00;;;42.30;;
46551;SDS011;32278;51.810;4.712;2023-11-21T13:11:17;55.78;;;43.85;;
46551;SDS011;32278;51.810;4.712;2023-11-21T13:13:43;52.85;;;43.60;;
46551;SDS011;32278;51.810;4.712;2023-11-21T13:16:10;50.67;;;43.50;;
46551;SDS011;32278;51.810;4.712;2023-11-21T13:18:36;48.38;;;43.20;;
46551;SDS011;32278;51.810;4.712;2023-11-21T13:21:05;71.97;;;44.38;;
46551;SDS011;32278;51.810;4.712;2023-11-21T13:23:42;52.38;;;42.75;;
46551;SDS011;32278;51.810;4.712;2023-11-21T13:26:08;50.17;;;43.60;;
46551;SDS011;32278;51.810;4.712;2023-11-21T13:28:35;47.65;;;42.33;;
46551;SDS011;32278;51.810;4.712;2023-11-21T13:31:02;52.40;;;42.78;;
46551;SDS011;32278;51.810;4.712;2023-11-21T13:36:02;51.95;;;41.33;;
46551;SDS011;32278;51.810;4.712;2023-11-21T13:38:32;49.60;;;40.80;;
46551;SDS011;32278;51.810;4.712;2023-11-21T13:41:00;47.72;;;40.92;;
46551;SDS011;32278;51.810;4.712;2023-11-21T13:43:26;49.75;;;42.10;;
46551;SDS011;32278;51.810;4.712;2023-11-21T13:45:53;48.10;;;43.20;;
46551;SDS011;32278;51.810;4.712;2023-11-21T13:48:31;46.00;;;41.15;;
46551;SDS011;32278;51.810;4.712;2023-11-21T13:51:05;44.55;;;39.72;;
46551;SDS011;32278;51.810;4.712;2023-11-21T13:53:47;44.65;;;39.78;;
46551;SDS011;32278;51.810;4.712;2023-11-21T13:56:15;47.10;;;40.33;;
46551;SDS011;32278;51.810;4.712;2023-11-21T13:58:48;45.15;;;40.35;;
46551;SDS011;32278;51.810;4.712;2023-11-21T14:01:19;43.08;;;38.55;;
46551;SDS011;32278;51.810;4.712;2023-11-21T14:03:55;44.55;;;39.85;;
46551;SDS011;32278;51.810;4.712;2023-11-21T14:06:36;45.75;;;40.78;;
46551;SDS011;32278;51.810;4.712;2023-11-21T14:09:12;45.25;;;40.60;;
46551;SDS011;32278;51.810;4.712;2023-11-21T14:11:47;46.63;;;42.03;;
46551;SDS011;32278;51.810;4.712;2023-11-21T14:14:14;48.75;;;43.53;;
46551;SDS011;32278;51.810;4.712;2023-11-21T14:16:40;49.83;;;42.22;;
46551;SDS011;32278;51.810;4.712;2023-11-21T14:19:07;46.58;;;41.63;;
46551;SDS011;32278;51.810;4.712;2023-11-21T14:21:40;44.92;;;40.13;;
46551;SDS011;32278;51.810;4.712;2023-11-21T14:24:08;45.17;;;40.63;;
46551;SDS011;32278;51.810;4.712;2023-11-21T14:26:34;43.17;;;38.75;;
46551;SDS011;32278;51.810;4.712;2023-11-21T14:29:00;44.50;;;39.70;;
46551;SDS011;32278;51.810;4.712;2023-11-21T14:31:27;43.85;;;39.35;;
46551;SDS011;32278;51.810;4.712;2023-11-21T14:33:55;47.05;;;42.17;;